Time;durP1;ratioP1;P1;durP2;ratioP2;P2;SDS_P1;SDS_P2;PMS_P1;PMS_P2;Temp;Humidity;BMP_temperature;BMP_pressure;BME280_temperature;BME280_humidity;BME280_pressure;Samples;Min_cycle;Max_cycle;Signal;HPM_P1;HPM_P2
2023/07/23 00:01:02;;;;;;;3.70;2.17;;;14.70;99.90;;;;;;6369807;22;20090;-84
2023/07/23 00:03:27;;;;;;;5.32;2.38;;;14.70;99.90;;;;;;6370863;22;20025;-84
2023/07/23 00:05:53;;;;;;;4.72;2.33;;;14.70;99.90;;;;;;6370677;22;20321;-85
2023/07/23 00:08:19;;;;;;;5.57;2.58;;;14.70;99.90;;;;;;6342946;22;20147;-84
2023/07/23 00:10:44;;;;;;;6.30;2.40;;;14.90;99.90;;;;;;6369053;22;20014;-84
2023/07/23 00:13:11;;;;;;;5.65;2.50;;;14.70;99.90;;;;;;6369023;22;20018;-84
2023/07/23 00:15:37;;;;;;;4.15;2.40;;;14.70;99.90;;;;;;6369058;22;20006;-84
2023/07/23 00:18:03;;;;;;;5.88;1.95;;;14.70;99.90;;;;;;6368822;22;20014;-84
2023/07/23 00:20:28;;;;;;;4.90;1.92;;;14.60;99.90;;;;;;6369042;22;20022;-84
2023/07/23 00:22:54;;;;;;;6.68;2.50;;;14.60;99.90;;;;;;6343383;22;20021;-84
2023/07/23 00:25:20;;;;;;;3.80;1.88;;;14.60;99.90;;;;;;6343713;22;20089;-84
2023/07/23 00:27:45;;;;;;;6.05;1.60;;;14.60;99.90;;;;;;6369235;22;20034;-84
2023/07/23 00:30:11;;;;;;;3.33;1.88;;;14.60;99.90;;;;;;6369083;22;20021;-84
2023/07/23 00:32:37;;;;;;;4.82;2.83;;;14.60;99.90;;;;;;6370452;22;20401;-84
2023/07/23 00:35:03;;;;;;;5.35;2.35;;;14.60;99.90;;;;;;6368910;22;20386;-85
2023/07/23 00:37:29;;;;;;;3.30;2.20;;;14.60;99.90;;;;;;6370421;22;20041;-84
2023/07/23 00:39:55;;;;;;;4.10;2.10;;;14.60;99.90;;;;;;6370289;22;20007;-84
2023/07/23 00:42:21;;;;;;;3.83;2.10;;;14.50;99.90;;;;;;6368467;22;20106;-84
2023/07/23 00:44:46;;;;;;;5.55;2.22;;;14.50;99.90;;;;;;6368843;22;20089;-84
2023/07/23 00:47:13;;;;;;;2.75;1.73;;;14.50;99.90;;;;;;6370005;22;20115;-83
2023/07/23 00:49:38;;;;;;;3.47;1.65;;;14.50;99.90;;;;;;6342214;22;20089;-84
2023/07/23 00:52:06;;;;;;;4.38;2.20;;;14.50;99.90;;;;;;6342556;22;20050;-84
2023/07/23 00:54:32;;;;;;;6.05;2.83;;;14.50;99.90;;;;;;6341830;22;20010;-84
2023/07/23 00:57:00;;;;;;;5.82;2.67;;;14.50;99.90;;;;;;6342066;22;20121;-84
2023/07/23 00:59:29;;;;;;;4.53;2.45;;;14.50;99.90;;;;;;6369776;22;20045;-84
2023/07/23 01:01:55;;;;;;;6.32;2.95;;;14.50;99.90;;;;;;6315743;22;20018;-84
2023/07/23 01:04:21;;;;;;;4.53;2.00;;;14.50;99.90;;;;;;6370185;22;20010;-84
2023/07/23 01:06:48;;;;;;;5.07;2.50;;;14.50;99.90;;;;;;6342154;22;20014;-84
2023/07/23 01:09:15;;;;;;;4.65;2.25;;;14.40;99.90;;;;;;6341350;22;20049;-84
2023/07/23 01:11:41;;;;;;;6.10;2.10;;;14.50;99.90;;;;;;6342054;22;20027;-84
2023/07/23 01:14:08;;;;;;;5.55;2.17;;;14.50;99.90;;;;;;6342145;22;20006;-84
2023/07/23 01:16:34;;;;;;;3.45;2.00;;;14.40;99.90;;;;;;6370319;22;20393;-84
2023/07/23 01:19:01;;;;;;;3.47;1.98;;;14.40;99.90;;;;;;6341632;22;20089;-84
2023/07/23 01:21:27;;;;;;;5.25;2.50;;;14.50;99.90;;;;;;6341865;22;20018;-84
2023/07/23 01:23:53;;;;;;;4.53;2.47;;;14.50;99.90;;;;;;6369764;22;20029;-84
2023/07/23 01:26:20;;;;;;;4.47;2.08;;;14.60;99.90;;;;;;6369666;22;20018;-84
2023/07/23 01:28:45;;;;;;;5.72;2.30;;;14.50;99.90;;;;;;6370173;22;20017;-83
2023/07/23 01:31:12;;;;;;;5.45;2.38;;;14.50;99.90;;;;;;6341765;22;20415;-84
2023/07/23 01:33:42;;;;;;;5.00;2.78;;;14.50;99.90;;;;;;6369640;22;20471;-84
2023/07/23 01:36:09;;;;;;;5.18;2.28;;;14.50;99.90;;;;;;6370297;22;20014;-84
2023/07/23 01:38:35;;;;;;;4.93;2.25;;;14.50;99.90;;;;;;6370237;22;20011;-84
2023/07/23 01:41:01;;;;;;;5.18;2.08;;;14.50;99.90;;;;;;6369213;22;20158;-83
2023/07/23 01:43:28;;;;;;;5.70;2.28;;;14.50;99.90;;;;;;6342080;22;20028;-84
2023/07/23 01:45:54;;;;;;;5.05;2.30;;;14.50;99.90;;;;;;6353520;22;20014;-84
2023/07/23 01:48:21;;;;;;;5.00;2.50;;;14.50;99.90;;;;;;6342247;22;20028;-84
2023/07/23 01:50:47;;;;;;;3.88;1.80;;;14.60;99.90;;;;;;6369545;22;20071;-84
2023/07/23 01:53:13;;;;;;;4.03;2.33;;;14.50;99.90;;;;;;6369733;22;20093;-84
2023/07/23 01:55:39;;;;;;;5.10;2.08;;;14.50;99.90;;;;;;6368102;22;20052;-84
2023/07/23 01:58:04;;;;;;;3.28;1.60;;;14.50;99.90;;;;;;6368424;22;20015;-84
2023/07/23 02:00:30;;;;;;;4.97;1.88;;;14.50;99.90;;;;;;6368030;22;20014;-84
2023/07/23 02:02:56;;;;;;;4.18;2.25;;;14.50;99.90;;;;;;6367426;22;20019;-84
2023/07/23 02:05:22;;;;;;;3.55;1.92;;;14.50;99.90;;;;;;6367877;22;20089;-83
2023/07/23 02:07:48;;;;;;;4.55;1.88;;;14.50;99.90;;;;;;6368574;22;20336;-83
2023/07/23 02:10:20;;;;;;;5.13;2.08;;;14.50;99.90;;;;;;6369447;22;20511;-83
2023/07/23 02:12:45;;;;;;;4.60;1.98;;;14.50;99.90;;;;;;6369487;22;20011;-83
2023/07/23 02:15:11;;;;;;;5.55;1.88;;;14.50;99.90;;;;;;6367915;22;20347;-83
2023/07/23 02:17:37;;;;;;;4.38;1.75;;;14.50;99.90;;;;;;6370127;22;20045;-83
2023/07/23 02:20:04;;;;;;;3.85;1.90;;;14.50;99.90;;;;;;6370707;22;20444;-83
2023/07/23 02:22:30;;;;;;;4.18;1.65;;;14.60;99.90;;;;;;6369795;22;20023;-83
2023/07/23 02:24:55;;;;;;;4.18;2.03;;;14.50;99.90;;;;;;6371763;22;20085;-83
2023/07/23 02:27:21;;;;;;;2.90;1.50;;;14.50;99.90;;;;;;6371807;22;20014;-83
2023/07/23 02:29:47;;;;;;;5.53;2.15;;;14.50;99.90;;;;;;6370252;22;20034;-84
2023/07/23 02:32:13;;;;;;;4.75;2.42;;;14.50;99.90;;;;;;6369967;22;20018;-84
2023/07/23 02:34:38;;;;;;;3.88;1.92;;;14.50;99.90;;;;;;6371288;22;20025;-83
2023/07/23 02:37:04;;;;;;;5.38;2.05;;;14.50;99.90;;;;;;6370446;22;20383;-84
2023/07/23 02:39:32;;;;;;;6.30;2.42;;;14.50;99.90;;;;;;6371640;22;20081;-83
2023/07/23 02:41:58;;;;;;;5.57;2.25;;;14.50;99.90;;;;;;6371130;22;20018;-84
2023/07/23 02:44:24;;;;;;;3.95;2.25;;;14.60;99.90;;;;;;6371490;22;20021;-84
2023/07/23 02:46:49;;;;;;;3.65;1.60;;;14.50;99.90;;;;;;6369255;22;20026;-84
2023/07/23 02:49:15;;;;;;;4.97;2.22;;;14.70;99.90;;;;;;6369413;22;20015;-83
2023/07/23 02:51:41;;;;;;;6.43;2.30;;;14.50;99.90;;;;;;6371624;22;20324;-84
2023/07/23 02:54:08;;;;;;;4.53;1.90;;;14.50;99.90;;;;;;6371346;22;20018;-83
2023/07/23 02:56:35;;;;;;;4.07;2.08;;;14.50;99.90;;;;;;6369099;22;20344;-83
2023/07/23 02:59:02;;;;;;;3.70;2.40;;;14.50;99.90;;;;;;6371419;22;20053;-83
2023/07/23 03:01:29;;;;;;;4.18;2.40;;;14.50;99.90;;;;;;6369547;22;20026;-83
2023/07/23 03:03:55;;;;;;;3.55;1.92;;;14.60;99.90;;;;;;6369822;22;20022;-83
2023/07/23 03:06:21;;;;;;;3.25;1.80;;;14.60;99.90;;;;;;6371050;22;20370;-83
2023/07/23 03:08:46;;;;;;;4.47;1.80;;;14.50;99.90;;;;;;6369491;22;20014;-83
2023/07/23 03:11:12;;;;;;;4.43;2.00;;;14.50;99.90;;;;;;6370774;22;20016;-83
2023/07/23 03:13:38;;;;;;;3.85;2.20;;;14.60;99.90;;;;;;6371149;22;20014;-83
2023/07/23 03:16:04;;;;;;;5.28;2.33;;;14.50;99.90;;;;;;6371362;22;20021;-83
2023/07/23 03:18:30;;;;;;;5.85;2.38;;;14.60;99.90;;;;;;6371183;22;20018;-83
2023/07/23 03:20:55;;;;;;;3.45;2.13;;;14.60;99.90;;;;;;6369636;22;20094;-84
2023/07/23 03:23:21;;;;;;;6.22;2.58;;;14.70;99.90;;;;;;6371384;22;20018;-83
2023/07/23 03:25:47;;;;;;;3.60;1.65;;;14.60;99.90;;;;;;6370903;22;20011;-83
2023/07/23 03:28:12;;;;;;;5.10;2.10;;;14.60;99.90;;;;;;6368990;22;20014;-83
2023/07/23 03:30:38;;;;;;;4.40;2.20;;;14.50;99.90;;;;;;6369344;22;20340;-83
2023/07/23 03:33:04;;;;;;;4.78;2.08;;;14.60;99.90;;;;;;6371244;22;20007;-83
2023/07/23 03:35:29;;;;;;;3.38;1.92;;;14.60;99.90;;;;;;6370891;22;20483;-83
2023/07/23 03:37:55;;;;;;;6.88;2.75;;;14.60;99.90;;;;;;6369124;22;20400;-84
2023/07/23 03:40:21;;;;;;;4.88;2.47;;;14.70;99.90;;;;;;6369956;22;20026;-83
2023/07/23 03:42:47;;;;;;;5.20;2.78;;;14.70;99.90;;;;;;6370908;22;20049;-84
2023/07/23 03:45:13;;;;;;;5.55;2.30;;;14.60;99.90;;;;;;6370377;22;20021;-84
2023/07/23 03:47:39;;;;;;;3.63;2.00;;;14.60;99.90;;;;;;6370274;22;20033;-83
2023/07/23 03:50:06;;;;;;;4.13;2.42;;;14.60;99.90;;;;;;6371114;22;20037;-83
2023/07/23 03:52:31;;;;;;;5.25;2.45;;;14.60;99.90;;;;;;6342134;22;20021;-84
2023/07/23 03:54:57;;;;;;;5.57;2.67;;;14.60;99.90;;;;;;6342673;22;20057;-83
2023/07/23 03:57:23;;;;;;;4.93;1.90;;;14.60;99.90;;;;;;6370319;22;20022;-84
2023/07/23 03:59:49;;;;;;;4.32;1.85;;;14.50;99.90;;;;;;6315955;22;20518;-84
2023/07/23 04:02:14;;;;;;;4.93;2.53;;;14.70;99.90;;;;;;6370922;22;20036;-84
2023/07/23 04:04:40;;;;;;;6.82;2.33;;;14.50;99.90;;;;;;6342688;22;20018;-84
2023/07/23 04:07:07;;;;;;;3.42;2.05;;;14.60;99.90;;;;;;6342608;22;20018;-84
2023/07/23 04:09:33;;;;;;;6.18;2.92;;;14.60;99.90;;;;;;6342453;22;20018;-84
2023/07/23 04:12:00;;;;;;;3.85;2.05;;;14.50;99.90;;;;;;6316037;22;20101;-84
2023/07/23 04:14:26;;;;;;;6.53;1.90;;;14.50;99.90;;;;;;6316239;22;20067;-84
2023/07/23 04:16:54;;;;;;;3.42;2.28;;;14.50;99.90;;;;;;6343051;22;20017;-84
2023/07/23 04:19:19;;;;;;;5.80;1.90;;;14.50;99.90;;;;;;6369859;22;20020;-84
2023/07/23 04:21:45;;;;;;;3.60;1.65;;;14.50;99.90;;;;;;6342486;22;20046;-84
2023/07/23 04:24:11;;;;;;;4.25;2.88;;;14.50;99.90;;;;;;6342487;22;20072;-84
2023/07/23 04:26:36;;;;;;;7.57;2.03;;;14.50;99.90;;;;;;6370028;22;20015;-84
2023/07/23 04:29:02;;;;;;;3.28;1.88;;;14.40;99.90;;;;;;6342138;22;20096;-84
2023/07/23 04:31:28;;;;;;;6.05;1.88;;;14.50;99.90;;;;;;6341798;22;20071;-84
2023/07/23 04:33:53;;;;;;;3.13;1.52;;;14.50;99.90;;;;;;6370409;22;20014;-84
2023/07/23 04:36:19;;;;;;;4.07;1.80;;;14.50;99.90;;;;;;6342773;22;20094;-84
2023/07/23 04:38:46;;;;;;;3.75;2.03;;;14.50;99.90;;;;;;6370341;22;20025;-83
2023/07/23 04:41:12;;;;;;;4.47;2.28;;;14.70;99.90;;;;;;6341759;22;20018;-83
2023/07/23 04:43:39;;;;;;;3.53;1.83;;;14.50;99.90;;;;;;6342001;22;20093;-84
2023/07/23 04:46:05;;;;;;;5.57;1.73;;;14.50;99.90;;;;;;6369782;22;20099;-84
2023/07/23 04:48:32;;;;;;;2.63;1.40;;;14.50;99.90;;;;;;6370198;22;20026;-84
2023/07/23 04:51:02;;;;;;;4.43;2.00;;;14.50;99.90;;;;;;6341923;22;20017;-84
2023/07/23 04:53:28;;;;;;;2.38;1.40;;;14.50;99.90;;;;;;6370376;22;20378;-84
2023/07/23 04:55:56;;;;;;;5.25;2.17;;;14.40;99.90;;;;;;6369693;22;20444;-84
2023/07/23 04:58:23;;;;;;;4.35;1.85;;;14.50;99.90;;;;;;6370318;22;20062;-84
2023/07/23 05:00:49;;;;;;;5.30;2.67;;;14.50;99.90;;;;;;6369495;22;20011;-84
2023/07/23 05:03:15;;;;;;;3.78;1.88;;;14.60;99.90;;;;;;6370153;22;20021;-84
2023/07/23 05:05:44;;;;;;;2.88;1.58;;;14.60;99.90;;;;;;6369766;22;20098;-83
2023/07/23 05:08:10;;;;;;;3.35;1.85;;;14.60;99.90;;;;;;6342028;22;20063;-84
2023/07/23 05:10:36;;;;;;;3.00;1.50;;;14.60;99.90;;;;;;6342112;22;20022;-83
2023/07/23 05:13:02;;;;;;;2.35;1.40;;;14.60;99.90;;;;;;6369760;22;20021;-85
2023/07/23 05:15:28;;;;;;;4.43;1.70;;;14.60;99.90;;;;;;6369461;22;20018;-84
2023/07/23 05:17:54;;;;;;;4.72;1.60;;;14.60;99.90;;;;;;6341546;22;20049;-85
2023/07/23 05:20:20;;;;;;;4.25;1.75;;;14.60;99.90;;;;;;6341599;22;20105;-84
2023/07/23 05:22:46;;;;;;;4.53;2.38;;;14.70;99.90;;;;;;6369971;22;20022;-84
2023/07/23 05:25:11;;;;;;;3.78;2.10;;;14.70;99.90;;;;;;6369611;22;20090;-84
2023/07/23 05:27:38;;;;;;;3.72;1.90;;;14.70;99.90;;;;;;6370336;22;20010;-84
2023/07/23 05:30:04;;;;;;;4.15;2.47;;;14.70;99.90;;;;;;6341987;22;20014;-84
2023/07/23 05:32:30;;;;;;;3.35;1.58;;;14.70;99.90;;;;;;6342078;22;20019;-85
2023/07/23 05:34:56;;;;;;;4.30;2.35;;;14.70;99.90;;;;;;6341410;22;20015;-84
2023/07/23 05:37:23;;;;;;;3.45;1.48;;;14.80;99.90;;;;;;6341826;22;20037;-83
2023/07/23 05:39:49;;;;;;;3.92;1.90;;;14.70;99.90;;;;;;6369554;22;20594;-84
2023/07/23 05:42:15;;;;;;;5.97;1.95;;;14.70;99.90;;;;;;6369858;22;20014;-84
2023/07/23 05:44:41;;;;;;;4.72;2.03;;;14.70;99.90;;;;;;6315545;22;20019;-84
2023/07/23 05:47:07;;;;;;;5.72;2.00;;;14.70;99.90;;;;;;6369846;22;20345;-84
2023/07/23 05:49:32;;;;;;;3.55;1.70;;;14.70;99.90;;;;;;6315381;22;20021;-84
2023/07/23 05:51:59;;;;;;;4.93;1.52;;;14.70;99.90;;;;;;6369437;22;20014;-84
2023/07/23 05:54:25;;;;;;;5.05;2.13;;;14.70;99.90;;;;;;6342348;22;20083;-86
2023/07/23 05:56:50;;;;;;;3.15;1.85;;;14.70;99.90;;;;;;6371933;22;20018;-87
2023/07/23 05:59:16;;;;;;;3.47;1.50;;;14.80;99.90;;;;;;6372027;22;20302;-85
2023/07/23 06:01:42;;;;;;;3.75;2.10;;;14.80;99.90;;;;;;6317435;22;20085;-86
2023/07/23 06:04:08;;;;;;;3.85;1.80;;;14.80;99.90;;;;;;6372089;22;20018;-86
2023/07/23 06:06:34;;;;;;;3.58;1.50;;;14.70;99.90;;;;;;6343463;22;20010;-85
2023/07/23 06:09:00;;;;;;;3.58;1.45;;;14.80;99.90;;;;;;6343761;22;20047;-85
2023/07/23 06:11:25;;;;;;;3.60;2.15;;;14.80;99.90;;;;;;6343786;22;20018;-85
2023/07/23 06:13:51;;;;;;;4.75;1.92;;;14.80;99.90;;;;;;6343739;22;20040;-85
2023/07/23 06:16:17;;;;;;;2.72;1.58;;;14.90;99.90;;;;;;6343125;22;20340;-85
2023/07/23 06:18:43;;;;;;;6.28;2.05;;;14.90;99.90;;;;;;6371236;22;20017;-85
2023/07/23 06:21:08;;;;;;;4.05;1.95;;;14.90;99.90;;;;;;6371725;22;20049;-84
2023/07/23 06:23:34;;;;;;;2.33;1.50;;;14.90;99.90;;;;;;6371617;22;20045;-85
2023/07/23 06:26:00;;;;;;;5.55;2.22;;;15.00;99.90;;;;;;6342991;22;20463;-86
2023/07/23 06:28:26;;;;;;;4.15;2.25;;;15.00;99.90;;;;;;6370991;22;20075;-85
2023/07/23 06:30:53;;;;;;;4.07;2.13;;;15.00;99.90;;;;;;6371475;22;20014;-86
2023/07/23 06:33:19;;;;;;;4.13;2.00;;;15.10;99.90;;;;;;6343469;22;20014;-87
2023/07/23 06:35:46;;;;;;;2.92;1.80;;;15.10;99.90;;;;;;6342928;22;20014;-87
2023/07/23 06:38:12;;;;;;;3.05;1.90;;;15.20;99.90;;;;;;6343136;22;20085;-86
2023/07/23 06:40:45;;;;;;;3.83;2.13;;;15.20;99.90;;;;;;6371554;22;20045;-88
2023/07/23 06:43:11;;;;;;;3.63;1.50;;;15.20;99.90;;;;;;6343289;22;20014;-87
2023/07/23 06:45:37;;;;;;;2.58;1.42;;;15.20;99.90;;;;;;6371408;22;20018;-88
2023/07/23 06:48:03;;;;;;;3.85;1.60;;;15.30;99.90;;;;;;6342791;22;20457;-87
2023/07/23 06:50:31;;;;;;;4.35;1.75;;;15.30;99.90;;;;;;6370853;22;20014;-83
2023/07/23 06:52:57;;;;;;;5.07;2.17;;;15.30;99.90;;;;;;6371069;22;20018;-87
2023/07/23 06:55:23;;;;;;;5.00;2.60;;;15.40;99.90;;;;;;6343066;22;20019;-85
2023/07/23 06:57:49;;;;;;;3.05;2.00;;;15.40;99.90;;;;;;6342682;22;20518;-86
2023/07/23 07:00:15;;;;;;;3.60;2.05;;;15.40;99.90;;;;;;6342966;22;20010;-86
2023/07/23 07:02:41;;;;;;;4.65;2.90;;;15.50;99.90;;;;;;6371339;22;20047;-83
2023/07/23 07:05:07;;;;;;;5.03;2.38;;;15.50;99.90;;;;;;6370806;22;20017;-84
2023/07/23 07:07:35;;;;;;;4.45;2.05;;;15.50;99.90;;;;;;6371034;22;20018;-86
2023/07/23 07:10:04;;;;;;;4.38;2.45;;;15.60;99.90;;;;;;6317402;22;20014;-84
2023/07/23 07:12:30;;;;;;;4.03;2.40;;;15.60;99.90;;;;;;6343318;22;20014;-82
2023/07/23 07:14:55;;;;;;;6.15;3.08;;;15.70;99.90;;;;;;6343441;22;20048;-83
2023/07/23 07:17:21;;;;;;;5.50;2.40;;;15.70;99.90;;;;;;6370759;22;20333;-84
2023/07/23 07:19:47;;;;;;;4.53;2.53;;;15.70;99.90;;;;;;6371048;22;20093;-84
2023/07/23 07:22:13;;;;;;;7.43;3.20;;;15.80;99.90;;;;;;6342778;22;20018;-83
2023/07/23 07:24:38;;;;;;;4.57;2.95;;;15.80;99.90;;;;;;6371065;22;20007;-83
2023/07/23 07:27:08;;;;;;;6.55;3.28;;;15.80;99.90;;;;;;6370886;22;20083;-83
2023/07/23 07:29:35;;;;;;;7.45;3.10;;;15.80;99.90;;;;;;6370700;22;20021;-84
2023/07/23 07:32:00;;;;;;;5.43;2.97;;;15.80;99.90;;;;;;6370654;22;20014;-85
2023/07/23 07:34:26;;;;;;;4.72;3.05;;;15.80;99.90;;;;;;6342300;22;20014;-83
2023/07/23 07:36:52;;;;;;;5.90;3.13;;;15.80;99.90;;;;;;6370913;22;20025;-84
2023/07/23 07:39:18;;;;;;;4.68;3.08;;;15.90;99.90;;;;;;6370837;22;20089;-83
2023/07/23 07:41:43;;;;;;;9.18;3.78;;;15.90;99.90;;;;;;6370640;22;20046;-83
2023/07/23 07:44:09;;;;;;;5.32;3.13;;;15.90;99.90;;;;;;6343587;22;20014;-83
2023/07/23 07:46:35;;;;;;;7.45;4.07;;;15.90;99.90;;;;;;6370289;22;20081;-83
2023/07/23 07:49:00;;;;;;;8.88;4.20;;;15.90;99.90;;;;;;6370066;22;20382;-84
2023/07/23 07:51:26;;;;;;;6.90;3.22;;;16.00;99.90;;;;;;6316849;22;20018;-83
2023/07/23 07:53:52;;;;;;;7.43;3.35;;;16.00;99.90;;;;;;6316606;22;20014;-83
2023/07/23 07:56:18;;;;;;;6.57;3.30;;;16.00;99.90;;;;;;6370472;22;20083;-83
2023/07/23 07:58:47;;;;;;;7.13;3.60;;;16.00;99.90;;;;;;6342482;22;20082;-83
2023/07/23 08:01:13;;;;;;;6.43;3.35;;;15.90;99.90;;;;;;6370616;22;22346;-83
2023/07/23 08:03:39;;;;;;;7.63;3.80;;;16.00;99.90;;;;;;6370445;22;20025;-84
2023/07/23 08:06:05;;;;;;;6.75;3.88;;;15.90;99.90;;;;;;6342740;22;20014;-85
2023/07/23 08:08:34;;;;;;;9.18;3.38;;;16.00;99.90;;;;;;6342483;22;20029;-84
2023/07/23 08:11:01;;;;;;;9.07;4.20;;;16.00;99.90;;;;;;6342327;22;20014;-84
2023/07/23 08:13:27;;;;;;;6.95;3.20;;;16.10;99.90;;;;;;6316395;22;20018;-84
2023/07/23 08:15:54;;;;;;;7.90;3.70;;;16.10;99.90;;;;;;6342264;22;20093;-84
2023/07/23 08:18:20;;;;;;;9.20;4.47;;;16.00;99.90;;;;;;6342487;22;20083;-83
2023/07/23 08:20:46;;;;;;;7.80;3.95;;;16.10;99.90;;;;;;6343185;22;20448;-83
2023/07/23 08:23:12;;;;;;;8.05;4.00;;;16.10;99.90;;;;;;6342284;22;20018;-85
2023/07/23 08:25:38;;;;;;;11.00;4.30;;;16.20;99.90;;;;;;6370191;22;20018;-84
2023/07/23 08:28:07;;;;;;;8.75;4.43;;;16.20;99.90;;;;;;6342669;22;20018;-84
2023/07/23 08:30:33;;;;;;;7.10;3.75;;;16.20;99.90;;;;;;6370230;22;20014;-83
2023/07/23 08:33:00;;;;;;;7.75;3.72;;;16.20;99.90;;;;;;6342602;22;20023;-84
2023/07/23 08:35:27;;;;;;;10.48;3.92;;;16.20;99.90;;;;;;6342610;22;20086;-85
2023/07/23 08:37:54;;;;;;;6.32;4.13;;;16.20;99.90;;;;;;6342460;22;20509;-84
2023/07/23 08:40:21;;;;;;;6.00;3.20;;;16.30;99.90;;;;;;6341827;22;20017;-83
2023/07/23 08:42:56;;;;;;;7.53;3.40;;;16.30;99.90;;;;;;6342223;22;20537;-83
2023/07/23 08:45:43;;;;;;;6.00;3.65;;;16.20;99.90;;;;;;6369830;22;20094;-83
2023/07/23 08:48:19;;;;;;;6.68;4.05;;;16.20;99.90;;;;;;6370406;22;20360;-83
2023/07/23 08:50:50;;;;;;;6.95;4.63;;;16.20;99.90;;;;;;6370434;22;20006;-82
2023/07/23 08:53:17;;;;;;;6.88;4.43;;;16.20;99.90;;;;;;6370234;22;20042;-85
2023/07/23 08:55:45;;;;;;;11.13;5.82;;;16.20;99.90;;;;;;6341905;22;20448;-83
2023/07/23 08:58:16;;;;;;;7.00;5.03;;;16.30;99.90;;;;;;6370169;22;20006;-84
2023/07/23 09:00:43;;;;;;;8.57;5.03;;;16.20;99.90;;;;;;6341964;22;20042;-84
2023/07/23 09:03:10;;;;;;;7.57;4.93;;;16.30;99.90;;;;;;6370252;22;20010;-86
2023/07/23 09:05:37;;;;;;;8.95;5.03;;;16.20;99.90;;;;;;6342174;22;20015;-83
2023/07/23 09:08:03;;;;;;;7.20;3.72;;;16.30;99.90;;;;;;6370329;22;20083;-85
2023/07/23 09:10:28;;;;;;;6.95;4.60;;;16.30;99.90;;;;;;6341943;22;20026;-84
2023/07/23 09:12:54;;;;;;;8.23;4.40;;;16.40;99.90;;;;;;6342083;22;20018;-85
2023/07/23 09:15:20;;;;;;;7.00;4.57;;;16.30;99.90;;;;;;6342024;22;20025;-84
2023/07/23 09:17:49;;;;;;;7.78;4.60;;;16.30;99.90;;;;;;6342746;22;20040;-85
2023/07/23 09:20:19;;;;;;;6.80;4.15;;;16.40;99.90;;;;;;6369966;22;20085;-85
2023/07/23 09:22:48;;;;;;;8.55;5.13;;;16.40;99.90;;;;;;6370146;22;20095;-85
2023/07/23 09:25:15;;;;;;;7.13;4.63;;;16.40;99.90;;;;;;6369960;22;20085;-86
2023/07/23 09:27:42;;;;;;;8.60;5.30;;;16.40;99.90;;;;;;6342068;22;20046;-85
2023/07/23 09:30:21;;;;;;;9.02;4.80;;;16.40;99.90;;;;;;6368907;22;20151;-85
2023/07/23 09:32:57;;;;;;;7.40;4.57;;;16.50;99.90;;;;;;6341893;22;20006;-85
2023/07/23 09:35:24;;;;;;;8.27;4.72;;;16.50;99.90;;;;;;6369849;22;20018;-86
2023/07/23 09:37:59;;;;;;;5.93;4.05;;;16.40;99.90;;;;;;6341156;22;20089;-86
2023/07/23 09:40:40;;;;;;;5.80;4.13;;;16.40;99.90;;;;;;6341732;22;20014;-84
2023/07/23 09:43:06;;;;;;;5.95;3.97;;;16.40;99.90;;;;;;6341932;22;20097;-85
2023/07/23 09:45:36;;;;;;;6.53;3.97;;;16.40;99.90;;;;;;6341243;22;20353;-84
2023/07/23 09:48:03;;;;;;;8.68;4.82;;;16.50;99.90;;;;;;6341337;22;20026;-86
2023/07/23 09:50:29;;;;;;;9.32;4.45;;;16.50;99.90;;;;;;6341874;22;20167;-85
2023/07/23 09:52:56;;;;;;;6.90;4.20;;;16.40;99.90;;;;;;6341537;22;20018;-85
2023/07/23 09:55:22;;;;;;;8.82;3.80;;;16.40;99.90;;;;;;6369505;22;20379;-84
2023/07/23 09:57:50;;;;;;;8.25;4.50;;;16.30;99.90;;;;;;6369677;22;20359;-84
2023/07/23 10:00:16;;;;;;;9.63;4.47;;;16.40;99.90;;;;;;6341641;22;20018;-84
2023/07/23 10:02:45;;;;;;;9.73;4.32;;;16.40;99.90;;;;;;6369428;22;20022;-85
2023/07/23 10:05:12;;;;;;;7.70;3.88;;;16.40;99.90;;;;;;6369671;22;20007;-85
2023/07/23 10:07:39;;;;;;;9.07;4.03;;;16.40;99.90;;;;;;6369649;22;20356;-84
2023/07/23 10:10:08;;;;;;;7.50;4.43;;;16.50;99.90;;;;;;6341687;22;20429;-85
2023/07/23 10:12:34;;;;;;;6.57;4.13;;;16.50;99.90;;;;;;6315506;22;20018;-86
2023/07/23 10:15:01;;;;;;;6.63;3.90;;;16.50;99.90;;;;;;6341588;22;20063;-85
2023/07/23 10:17:28;;;;;;;8.55;4.43;;;16.50;99.90;;;;;;6315461;22;20079;-85
2023/07/23 10:19:55;;;;;;;6.35;3.85;;;16.40;99.90;;;;;;6341391;22;20021;-85
2023/07/23 10:22:23;;;;;;;7.43;3.83;;;16.40;99.90;;;;;;6340878;22;20011;-85
2023/07/23 10:24:52;;;;;;;7.97;4.55;;;16.40;99.90;;;;;;6368637;22;20441;-85
2023/07/23 10:27:18;;;;;;;8.02;4.18;;;16.50;99.90;;;;;;6340952;22;20025;-85
2023/07/23 10:30:17;;;;;;;6.65;3.72;;;16.50;99.90;;;;;;6340666;22;20014;-83
2023/07/23 10:32:44;;;;;;;7.22;4.25;;;16.50;99.90;;;;;;6369281;22;20089;-85
2023/07/23 10:35:10;;;;;;;7.20;4.07;;;16.60;99.90;;;;;;6369516;22;20354;-87
2023/07/23 10:37:35;;;;;;;8.05;4.82;;;16.60;99.90;;;;;;6369970;22;20052;-84
2023/07/23 10:40:03;;;;;;;7.18;3.85;;;16.60;99.90;;;;;;6369519;22;20015;-84
2023/07/23 10:42:34;;;;;;;6.80;3.83;;;16.60;99.90;;;;;;6370892;22;20029;-86
2023/07/23 10:45:22;;;;;;;6.30;3.80;;;16.60;99.90;;;;;;6343099;22;20014;-87
2023/07/23 10:47:49;;;;;;;7.53;3.85;;;16.60;99.90;;;;;;6371252;22;20024;-86
2023/07/23 10:50:16;;;;;;;7.43;4.28;;;16.60;99.90;;;;;;6343274;22;20444;-86
2023/07/23 10:52:50;;;;;;;6.00;3.92;;;16.70;99.90;;;;;;6371529;22;20333;-87
2023/07/23 10:55:36;;;;;;;6.97;3.92;;;16.60;99.90;;;;;;6370932;22;20018;-85
2023/07/23 10:58:18;;;;;;;6.88;3.38;;;16.70;99.90;;;;;;6343280;22;20019;-84
2023/07/23 11:00:46;;;;;;;8.07;4.00;;;16.70;99.90;;;;;;6369781;22;20021;-86
2023/07/23 11:03:13;;;;;;;6.45;3.75;;;16.80;99.90;;;;;;6342897;22;20015;-85
2023/07/23 11:05:40;;;;;;;5.50;3.42;;;16.80;99.90;;;;;;6343667;22;20054;-84
2023/07/23 11:08:16;;;;;;;7.47;3.75;;;16.90;99.90;;;;;;6319187;22;20025;-85
2023/07/23 11:10:55;;;;;;;10.57;4.35;;;16.90;99.90;;;;;;6345230;22;20468;-85
2023/07/23 11:13:23;;;;;;;7.35;3.58;;;16.90;99.90;;;;;;6344537;22;20504;-82
2023/07/23 11:15:49;;;;;;;6.72;3.75;;;17.00;99.90;;;;;;6370447;22;20021;-83
2023/07/23 11:18:15;;;;;;;8.60;3.83;;;16.90;99.90;;;;;;6370796;22;20050;-82
2023/07/23 11:20:51;;;;;;;7.95;4.20;;;17.00;99.90;;;;;;6371046;22;20025;-83
2023/07/23 11:23:20;;;;;;;7.38;4.05;;;17.10;99.90;;;;;;6370557;22;20014;-84
2023/07/23 11:25:47;;;;;;;5.80;3.80;;;17.10;99.90;;;;;;6316682;22;20010;-84
2023/07/23 11:28:16;;;;;;;8.55;4.40;;;17.10;99.90;;;;;;6342911;22;20525;-88
2023/07/23 11:30:42;;;;;;;6.35;3.40;;;17.10;99.90;;;;;;6371192;22;20121;-83
2023/07/23 11:33:08;;;;;;;8.82;4.18;;;17.20;99.90;;;;;;6342960;22;20528;-85
2023/07/23 11:35:34;;;;;;;18.23;6.85;;;17.20;99.90;;;;;;6341982;22;20025;-84
2023/07/23 11:38:04;;;;;;;6.68;3.72;;;17.30;99.90;;;;;;6342438;22;20068;-85
2023/07/23 11:40:30;;;;;;;6.28;3.78;;;17.30;99.90;;;;;;6370984;22;20029;-85
2023/07/23 11:43:01;;;;;;;6.70;3.72;;;17.20;99.90;;;;;;6342631;22;20022;-86
2023/07/23 11:45:27;;;;;;;6.75;3.38;;;17.20;99.90;;;;;;6316436;22;20321;-86
2023/07/23 11:47:54;;;;;;;6.90;3.40;;;17.20;99.90;;;;;;6367417;22;20065;-86
2023/07/23 11:50:24;;;;;;;7.28;3.15;;;17.30;99.90;;;;;;6368869;22;20456;-86
2023/07/23 11:52:51;;;;;;;7.97;3.65;;;17.30;99.90;;;;;;6342315;22;20034;-88
2023/07/23 11:55:26;;;;;;;7.53;3.88;;;17.40;99.90;;;;;;6369023;22;20379;-86
2023/07/23 11:57:58;;;;;;;7.85;3.78;;;17.50;99.90;;;;;;6368890;22;20014;-85
2023/07/23 12:00:25;;;;;;;8.15;3.83;;;17.50;99.90;;;;;;6368818;22;20046;-85
2023/07/23 12:02:51;;;;;;;10.38;3.80;;;17.50;99.90;;;;;;6370162;22;20022;-87
2023/07/23 12:05:17;;;;;;;7.90;3.08;;;17.50;99.90;;;;;;6343027;22;20019;-85
2023/07/23 12:07:44;;;;;;;6.03;3.60;;;17.40;99.90;;;;;;6368952;22;20014;-86
2023/07/23 12:10:12;;;;;;;6.53;3.25;;;17.30;99.90;;;;;;6369344;22;20014;-86
2023/07/23 12:12:37;;;;;;;5.63;3.08;;;17.30;99.90;;;;;;6370517;22;20018;-85
2023/07/23 12:15:04;;;;;;;5.65;2.38;;;17.30;99.90;;;;;;6368347;22;20010;-85
2023/07/23 12:17:30;;;;;;;6.18;3.13;;;17.30;99.90;;;;;;6370353;22;20439;-85
2023/07/23 12:19:55;;;;;;;3.53;2.65;;;17.30;99.90;;;;;;6368278;22;20010;-85
2023/07/23 12:22:24;;;;;;;5.50;2.72;;;17.30;99.90;;;;;;6368434;22;20046;-86
2023/07/23 12:24:50;;;;;;;4.90;3.35;;;17.30;99.90;;;;;;6370134;22;20405;-86
2023/07/23 12:27:15;;;;;;;6.75;2.20;;;17.50;99.90;;;;;;6341993;22;20018;-85
2023/07/23 12:29:42;;;;;;;5.22;3.20;;;17.40;99.90;;;;;;6342347;22;20029;-84
2023/07/23 12:32:09;;;;;;;4.43;2.75;;;17.40;99.90;;;;;;6368721;22;20399;-86
2023/07/23 12:34:35;;;;;;;4.63;2.80;;;17.40;99.90;;;;;;6342390;22;20456;-86
2023/07/23 12:37:01;;;;;;;5.93;3.20;;;17.50;99.90;;;;;;6368521;22;20060;-86
2023/07/23 12:39:27;;;;;;;5.38;2.60;;;17.60;99.90;;;;;;6370140;22;20015;-86
2023/07/23 12:41:52;;;;;;;5.05;2.63;;;17.60;99.90;;;;;;6368623;22;20056;-86
2023/07/23 12:44:19;;;;;;;3.95;2.35;;;17.70;99.90;;;;;;6369122;22;20038;-86